^^
Station Historical Data
 
Daily Summary for August 23, 2017 Units:  English    Metric   Both
« Previous Day
Next Day »
Daily Weekly Monthly Yearly Custom
  Current: High: Low: Average:
Temperature: 62.3 °F 62.3 °F 51.6 °F 56.7 °F
Dew Point: 57.4 °F 57.4 °F 49.9 °F 53.3 °F
Humidity: 84% 95% 79% 89%
Wind Speed: 0.1mph 4.8mph 0.0mph 0.2mph
Wind Gust: 1.2mph 12.0mph - -
WindNW - - West
Pressure: 30.05 in 30.07 in 30.04 in -
Precipitation: 0.00 in      
Historical Graphs
 
 
Tabular Data for August 23, 2017
Time Temperature Dew Point Pressure Wind Wind Speed Wind Gust Humidity Rainfall Rate (Hourly) solar Conditions
00:02 61.6 °F 55.7 °F 30.04 in WNW 2.9 mph 11.5 mph 81% 0.00 in 0.0 W/m2 CLR
00:07 61.7 °F 55.5 °F 30.04 in Calm   2.3 mph 80% 0.00 in 0.0 W/m2 CLR
00:12 61.8 °F 55.6 °F 30.04 in NW 2.3 mph 8.1 mph 80% 0.00 in 0.0 W/m2 CLR
00:17 61.8 °F 55.6 °F 30.04 in SSE 0.1 mph 1.2 mph 80% 0.00 in 0.0 W/m2 CLR
00:22 61.7 °F 55.5 °F 30.04 in Calm     80% 0.00 in 0.0 W/m2 CLR
00:27 61.8 °F 55.2 °F 30.04 in Calm     79% 0.00 in 0.0 W/m2 CLR
00:32 61.9 °F 55.3 °F 30.04 in West 4.8 mph 11.5 mph 79% 0.00 in 0.0 W/m2 CLR
00:37 61.9 °F 55.3 °F 30.04 in NNW 1.1 mph 4.6 mph 79% 0.00 in 0.0 W/m2 CLR
00:42 61.8 °F 55.2 °F 30.05 in WSW 2.2 mph 4.6 mph 79% 0.00 in 0.0 W/m2 CLR
00:44 61.8 °F 55.2 °F 30.05 in Calm   9.0 mph 79% 0.00 in 0.0 W/m2 CLR
00:49 61.7 °F 55.1 °F 30.05 in West 1.0 mph 9.0 mph 79% 0.00 in 0.0 W/m2 CLR
00:54 61.4 °F 54.8 °F 30.05 in West 1.0 mph 12.0 mph 79% 0.00 in 0.0 W/m2 CLR
00:59 60.9 °F 54.7 °F 30.05 in Calm   4.0 mph 80% 0.00 in 0.0 W/m2 CLR
01:04 59.9 °F 54.1 °F 30.05 in Calm     81% 0.00 in 0.0 W/m2 CLR
01:09 59.4 °F 53.9 °F 30.05 in Calm   4.0 mph 82% 0.00 in 0.0 W/m2 CLR
01:14 59.2 °F 53.7 °F 30.05 in Calm     82% 0.00 in 0.0 W/m2 CLR
01:19 59.1 °F 53.9 °F 30.05 in Calm   4.0 mph 83% 0.00 in 0.0 W/m2 CLR
01:24 59.3 °F 54.1 °F 30.05 in Calm   2.0 mph 83% 0.00 in 0.0 W/m2 CLR
01:29 59.2 °F 54.0 °F 30.05 in Calm     83% 0.00 in 0.0 W/m2 CLR
01:34 59.1 °F 53.9 °F 30.05 in Calm   4.0 mph 83% 0.00 in 0.0 W/m2 CLR
01:39 58.9 °F 53.7 °F 30.05 in Calm   1.0 mph 83% 0.00 in 0.0 W/m2 CLR
01:44 58.7 °F 53.5 °F 30.05 in Calm   7.0 mph 83% 0.00 in 0.0 W/m2 CLR
01:49 58.4 °F 53.6 °F 30.05 in Calm     84% 0.00 in 0.0 W/m2 CLR
01:55 58.1 °F 53.3 °F 30.05 in Calm     84% 0.00 in 0.0 W/m2 CLR
01:59 57.9 °F 53.4 °F 30.05 in Calm     85% 0.00 in 0.0 W/m2 CLR
02:04 57.7 °F 53.2 °F 30.05 in Calm     85% 0.00 in 0.0 W/m2 CLR
02:10 57.6 °F 53.4 °F 30.05 in Calm     86% 0.00 in 0.0 W/m2 CLR
02:19 57.9 °F 53.4 °F 30.05 in Calm     85% 0.00 in 0.0 W/m2 CLR
02:25 57.8 °F 53.3 °F 30.05 in Calm     85% 0.00 in 0.0 W/m2 CLR
02:30 57.5 °F 53.0 °F 30.05 in Calm     85% 0.00 in 0.0 W/m2 CLR
02:35 57.3 °F 53.1 °F 30.05 in Calm     86% 0.00 in 0.0 W/m2 CLR
02:40 57.2 °F 53.0 °F 30.05 in Calm     86% 0.00 in 0.0 W/m2 CLR
02:45 56.9 °F 52.8 °F 30.05 in Calm     86% 0.00 in 0.0 W/m2 CLR
02:50 56.8 °F 53.0 °F 30.05 in Calm     87% 0.00 in 0.0 W/m2 CLR
02:55 56.5 °F 52.4 °F 30.05 in Calm     86% 0.00 in 0.0 W/m2 CLR
03:01 56.3 °F 52.5 °F 30.05 in Calm     87% 0.00 in 0.0 W/m2 CLR
03:06 56.0 °F 52.2 °F 30.05 in Calm     87% 0.00 in 0.0 W/m2 CLR
03:11 55.8 °F 52.3 °F 30.05 in Calm     88% 0.00 in 0.0 W/m2 CLR
03:16 55.5 °F 52.0 °F 30.05 in Calm     88% 0.00 in 0.0 W/m2 CLR
03:21 55.3 °F 52.1 °F 30.05 in Calm     89% 0.00 in 0.0 W/m2 CLR
03:26 55.0 °F 51.8 °F 30.05 in Calm     89% 0.00 in 0.0 W/m2 CLR
03:31 54.8 °F 51.6 °F 30.05 in Calm     89% 0.00 in 0.0 W/m2 CLR
03:36 54.6 °F 51.7 °F 30.05 in Calm     90% 0.00 in 0.0 W/m2 CLR
03:41 54.3 °F 51.4 °F 30.05 in Calm     90% 0.00 in 0.0 W/m2 CLR
03:45 54.1 °F 51.2 °F 30.05 in Calm     90% 0.00 in 0.0 W/m2 CLR
03:50 54.0 °F 51.4 °F 30.05 in Calm     91% 0.00 in 0.0 W/m2 CLR
03:55 53.8 °F 51.2 °F 30.05 in Calm     91% 0.00 in 0.0 W/m2 CLR
04:00 53.7 °F 51.1 °F 30.05 in Calm     91% 0.00 in 0.0 W/m2 CLR
04:06 53.6 °F 51.3 °F 30.05 in Calm     92% 0.00 in 0.0 W/m2 CLR
04:11 53.5 °F 51.2 °F 30.05 in Calm     92% 0.00 in 0.0 W/m2 CLR
04:16 53.3 °F 50.7 °F 30.05 in Calm     91% 0.00 in 0.0 W/m2 CLR
04:21 53.1 °F 50.8 °F 30.05 in Calm     92% 0.00 in 0.0 W/m2 CLR
04:26 52.9 °F 50.6 °F 30.05 in Calm     92% 0.00 in 0.0 W/m2 CLR
04:31 52.8 °F 50.5 °F 30.05 in Calm     92% 0.00 in 0.0 W/m2 CLR
04:36 52.8 °F 50.5 °F 30.05 in Calm     92% 0.00 in 0.0 W/m2 CLR
04:41 52.8 °F 50.8 °F 30.05 in Calm     93% 0.00 in 0.0 W/m2 CLR
04:47 52.6 °F 50.6 °F 30.05 in Calm     93% 0.00 in 0.0 W/m2 CLR
04:52 52.6 °F 50.6 °F 30.05 in Calm     93% 0.00 in 0.0 W/m2 CLR
04:57 52.5 °F 50.5 °F 30.04 in Calm     93% 0.00 in 0.0 W/m2 CLR
05:02 52.3 °F 50.3 °F 30.05 in Calm     93% 0.00 in 0.0 W/m2 CLR
05:07 52.2 °F 50.2 °F 30.04 in Calm     93% 0.00 in 0.0 W/m2 CLR
05:12 52.0 °F 50.0 °F 30.05 in Calm     93% 0.00 in 0.0 W/m2 CLR
05:17 51.9 °F 49.9 °F 30.05 in Calm     93% 0.00 in 0.0 W/m2 CLR
05:22 51.9 °F 50.2 °F 30.05 in Calm     94% 0.00 in 0.0 W/m2 CLR
05:27 51.8 °F 50.1 °F 30.05 in Calm     94% 0.00 in 0.0 W/m2 CLR
05:33 51.6 °F 49.9 °F 30.05 in Calm     94% 0.00 in 0.0 W/m2 CLR
05:38 51.7 °F 50.0 °F 30.05 in Calm     94% 0.00 in 0.0 W/m2 CLR
05:43 52.0 °F 50.6 °F 30.05 in Calm     95% 0.00 in 0.0 W/m2 CLR
05:48 52.3 °F 50.9 °F 30.05 in Calm     95% 0.00 in 0.0 W/m2 CLR
05:53 52.6 °F 51.2 °F 30.05 in Calm     95% 0.00 in 0.0 W/m2 CLR
05:58 52.7 °F 51.3 °F 30.05 in Calm     95% 0.00 in 0.0 W/m2 CLR
06:03 52.9 °F 51.5 °F 30.05 in Calm     95% 0.00 in 0.0 W/m2 CLR
06:08 53.1 °F 51.7 °F 30.06 in Calm     95% 0.00 in 0.0 W/m2 CLR
06:13 53.3 °F 51.9 °F 30.06 in Calm     95% 0.00 in 0.0 W/m2 CLR
06:18 53.5 °F 52.1 °F 30.06 in Calm     95% 0.00 in 0.0 W/m2 CLR
06:19 53.5 °F 52.1 °F 30.06 in Calm     95% 0.00 in 0.0 W/m2 CLR
06:24 53.5 °F 52.1 °F 30.06 in Calm     95% 0.00 in 0.0 W/m2 CLR
06:29 53.5 °F 52.1 °F 30.06 in Calm     95% 0.00 in 5.0 W/m2 CLR
06:34 53.6 °F 52.2 °F 30.06 in Calm     95% 0.00 in 9.0 W/m2 OVC
06:40 53.6 °F 52.2 °F 30.06 in Calm     95% 0.00 in 12.0 W/m2 OVC
06:44 53.6 °F 52.0 °F 30.06 in Calm     94% 0.00 in 14.0 W/m2 OVC
06:50 53.6 °F 51.9 °F 30.06 in Calm     94% 0.00 in 28.0 W/m2 OVC
06:55 53.7 °F 52.3 °F 30.06 in Calm     95% 0.00 in 40.0 W/m2 OVC
06:59 53.8 °F 52.4 °F 30.06 in Calm     95% 0.00 in 30.0 W/m2 OVC
07:04 53.7 °F 52.0 °F 30.06 in Calm     94% 0.00 in 33.0 W/m2 OVC
07:08 53.8 °F 52.1 °F 30.06 in Calm     94% 0.00 in 49.0 W/m2 CLR
07:13 53.9 °F 52.2 °F 30.06 in Calm     94% 0.00 in 100.0 W/m2 CLR
07:19 54.1 °F 52.4 °F 30.06 in Calm     94% 0.00 in 105.0 W/m2 CLR
07:24 54.3 °F 52.6 °F 30.06 in Calm     94% 0.00 in 100.0 W/m2 CLR
07:29 54.6 °F 52.9 °F 30.06 in Calm     94% 0.00 in 141.0 W/m2 CLR
07:34 54.9 °F 53.2 °F 30.06 in Calm     94% 0.00 in 172.0 W/m2 CLR
07:39 55.1 °F 53.4 °F 30.06 in Calm     94% 0.00 in 193.0 W/m2 CLR
07:44 55.4 °F 53.7 °F 30.06 in Calm     94% 0.00 in 202.0 W/m2 CLR
07:49 56.0 °F 54.0 °F 30.06 in Calm     93% 0.00 in 204.0 W/m2 CLR
07:54 56.5 °F 54.5 °F 30.06 in Calm     93% 0.00 in 246.0 W/m2 CLR
07:59 57.0 °F 54.7 °F 30.06 in Calm     92% 0.00 in 260.0 W/m2 CLR
08:04 57.5 °F 55.2 °F 30.06 in Calm     92% 0.00 in 253.0 W/m2 CLR
08:10 58.0 °F 55.3 °F 30.06 in Calm     91% 0.00 in 192.0 W/m2 CLR
08:14 58.4 °F 55.5 °F 30.06 in Calm     90% 0.00 in 230.0 W/m2 CLR
08:19 58.2 °F 55.0 °F 30.06 in Calm   3.0 mph 89% 0.00 in 223.0 W/m2 CLR
08:24 58.1 °F 54.9 °F 30.06 in Calm     89% 0.00 in 241.0 W/m2 CLR
08:29 58.2 °F 55.3 °F 30.06 in Calm   1.0 mph 90% 0.00 in 271.0 W/m2 CLR
08:34 58.2 °F 55.0 °F 30.06 in Calm     89% 0.00 in 311.0 W/m2 CLR
08:40 58.4 °F 55.2 °F 30.06 in Calm   1.0 mph 89% 0.00 in 323.0 W/m2 CLR
08:44 58.6 °F 55.4 °F 30.06 in Calm   4.0 mph 89% 0.00 in 244.0 W/m2 CLR
08:50 58.6 °F 55.4 °F 30.07 in Calm     89% 0.00 in 364.0 W/m2 CLR
08:54 59.0 °F 55.8 °F 30.07 in Calm     89% 0.00 in 346.0 W/m2 CLR
08:59 59.0 °F 55.4 °F 30.07 in Calm     88% 0.00 in 323.0 W/m2 CLR
09:04 59.0 °F 55.5 °F 30.07 in Calm   1.0 mph 88% 0.00 in 306.0 W/m2 CLR
09:09 59.3 °F 55.7 °F 30.06 in WNW 1.0 mph 8.0 mph 88% 0.00 in 325.0 W/m2 CLR
09:14 59.6 °F 56.1 °F 30.06 in Calm     88% 0.00 in 332.0 W/m2 CLR
09:20 60.0 °F 56.1 °F 30.06 in Calm   3.0 mph 87% 0.00 in 250.0 W/m2 CLR
09:25 60.2 °F 56.0 °F 30.06 in Calm     86% 0.00 in 325.0 W/m2 CLR
09:29 60.5 °F 56.3 °F 30.06 in Calm   2.0 mph 86% 0.00 in 371.0 W/m2 CLR
09:34 60.9 °F 56.3 °F 30.06 in Calm   1.0 mph 85% 0.00 in 399.0 W/m2 CLR
09:40 61.3 °F 56.4 °F 30.06 in NW 0.1 mph 1.2 mph 84% 0.00 in 279.0 W/m2 CLR
09:45 61.3 °F 56.4 °F 30.06 in Calm     84% 0.00 in 234.0 W/m2 FEW
09:50 61.5 °F 56.6 °F 30.06 in Calm     84% 0.00 in 221.0 W/m2 SCT
09:55 61.5 °F 56.3 °F 30.06 in WNW 2.0 mph 4.0 mph 83% 0.00 in 223.0 W/m2 SCT
10:00 61.7 °F 56.8 °F 30.06 in Calm     84% 0.00 in 265.0 W/m2 SCT
10:05 61.9 °F 57.0 °F 30.06 in Calm     84% 0.00 in 276.0 W/m2 FEW
10:10 62.1 °F 57.2 °F 30.05 in West 0.9 mph 2.0 mph 84% 0.00 in 295.0 W/m2 FEW
10:16 62.0 °F 56.8 °F 30.05 in Calm     83% 0.00 in 299.0 W/m2 FEW
10:21 62.3 °F 57.4 °F 30.05 in NW 0.1 mph 1.2 mph 84% 0.00 in 267.0 W/m2 SCT
Donkey Whisperer Farm
Compliments of Weather Underground - 2 mb